<?xml version="1.0" encoding="UTF-8" standalone="no" ?>
<gpx xmlns="http://www.topografix.com/GPX/1/1" xmlns:xsi="http://www.w3.org/2001/XMLSchema-instance" xsi:schemaLocation="http://www.topografix.com/GPX/1/1 http://www.topografix.com/GPX/1/1/gpx.xsd" version="1.1" creator="VisuGPX - https://www.visugpx.com">
  <metadata>
    <name>2022-04-29 11:45:39</name>
  </metadata>
  <trk>
    <name><![CDATA[2022-04-29 11:45:39]]></name>
    <trkseg>
      <trkpt lat="44.82612" lon="4.68018">
        <ele>153.47</ele>
        <time>2022-04-29T07:22:39Z</time>
      </trkpt>
      <trkpt lat="44.82616" lon="4.68017">
        <ele>151.54</ele>
        <time>2022-04-29T07:22:57Z</time>
      </trkpt>
      <trkpt lat="44.82613" lon="4.68017">
        <ele>158.75</ele>
        <time>2022-04-29T07:23:38Z</time>
      </trkpt>
      <trkpt lat="44.82615" lon="4.68013">
        <ele>159.72</ele>
        <time>2022-04-29T07:24:18Z</time>
      </trkpt>
      <trkpt lat="44.82615" lon="4.68016">
        <ele>158.27</ele>
        <time>2022-04-29T07:24:42Z</time>
      </trkpt>
      <trkpt lat="44.82615" lon="4.68018">
        <ele>158.75</ele>
        <time>2022-04-29T07:25:00Z</time>
      </trkpt>
      <trkpt lat="44.82615" lon="4.68022">
        <ele>162.12</ele>
        <time>2022-04-29T07:25:27Z</time>
      </trkpt>
      <trkpt lat="44.82618" lon="4.68029">
        <ele>164.04</ele>
        <time>2022-04-29T07:25:43Z</time>
      </trkpt>
      <trkpt lat="44.82619" lon="4.6803">
        <ele>164.52</ele>
        <time>2022-04-29T07:25:44Z</time>
      </trkpt>
      <trkpt lat="44.82639" lon="4.68045">
        <ele>166.45</ele>
        <time>2022-04-29T07:26:02Z</time>
      </trkpt>
      <trkpt lat="44.82645" lon="4.68032">
        <ele>165</ele>
        <time>2022-04-29T07:26:19Z</time>
      </trkpt>
      <trkpt lat="44.82649" lon="4.68001">
        <ele>167.89</ele>
        <time>2022-04-29T07:26:37Z</time>
      </trkpt>
      <trkpt lat="44.82646" lon="4.67961">
        <ele>165.48</ele>
        <time>2022-04-29T07:26:58Z</time>
      </trkpt>
      <trkpt lat="44.82643" lon="4.67941">
        <ele>165</ele>
        <time>2022-04-29T07:27:09Z</time>
      </trkpt>
      <trkpt lat="44.8264" lon="4.67936">
        <ele>165.48</ele>
        <time>2022-04-29T07:27:13Z</time>
      </trkpt>
      <trkpt lat="44.82636" lon="4.67926">
        <ele>165.96</ele>
        <time>2022-04-29T07:27:21Z</time>
      </trkpt>
      <trkpt lat="44.82635" lon="4.67891">
        <ele>171.73</ele>
        <time>2022-04-29T07:27:42Z</time>
      </trkpt>
      <trkpt lat="44.82638" lon="4.67862">
        <ele>180.38</ele>
        <time>2022-04-29T07:28:01Z</time>
      </trkpt>
      <trkpt lat="44.82642" lon="4.67811">
        <ele>179.42</ele>
        <time>2022-04-29T07:28:24Z</time>
      </trkpt>
      <trkpt lat="44.82641" lon="4.67778">
        <ele>170.77</ele>
        <time>2022-04-29T07:28:40Z</time>
      </trkpt>
      <trkpt lat="44.82646" lon="4.67768">
        <ele>170.77</ele>
        <time>2022-04-29T07:28:50Z</time>
      </trkpt>
      <trkpt lat="44.82673" lon="4.67744">
        <ele>165.96</ele>
        <time>2022-04-29T07:29:11Z</time>
      </trkpt>
      <trkpt lat="44.82701" lon="4.67729">
        <ele>162.6</ele>
        <time>2022-04-29T07:29:32Z</time>
      </trkpt>
      <trkpt lat="44.82725" lon="4.67716">
        <ele>159.72</ele>
        <time>2022-04-29T07:29:53Z</time>
      </trkpt>
      <trkpt lat="44.82745" lon="4.67703">
        <ele>158.75</ele>
        <time>2022-04-29T07:30:10Z</time>
      </trkpt>
      <trkpt lat="44.82772" lon="4.67687">
        <ele>157.79</ele>
        <time>2022-04-29T07:30:31Z</time>
      </trkpt>
      <trkpt lat="44.82795" lon="4.67673">
        <ele>157.31</ele>
        <time>2022-04-29T07:30:52Z</time>
      </trkpt>
      <trkpt lat="44.82815" lon="4.67662">
        <ele>159.24</ele>
        <time>2022-04-29T07:31:09Z</time>
      </trkpt>
      <trkpt lat="44.8284" lon="4.67648">
        <ele>159.72</ele>
        <time>2022-04-29T07:31:26Z</time>
      </trkpt>
      <trkpt lat="44.82858" lon="4.67628">
        <ele>159.72</ele>
        <time>2022-04-29T07:31:43Z</time>
      </trkpt>
      <trkpt lat="44.82877" lon="4.67617">
        <ele>163.08</ele>
        <time>2022-04-29T07:32:01Z</time>
      </trkpt>
      <trkpt lat="44.82903" lon="4.67603">
        <ele>163.56</ele>
        <time>2022-04-29T07:32:20Z</time>
      </trkpt>
      <trkpt lat="44.82922" lon="4.67588">
        <ele>164.52</ele>
        <time>2022-04-29T07:32:35Z</time>
      </trkpt>
      <trkpt lat="44.82954" lon="4.67578">
        <ele>169.81</ele>
        <time>2022-04-29T07:32:59Z</time>
      </trkpt>
      <trkpt lat="44.82977" lon="4.67576">
        <ele>172.69</ele>
        <time>2022-04-29T07:33:18Z</time>
      </trkpt>
      <trkpt lat="44.82995" lon="4.67572">
        <ele>178.94</ele>
        <time>2022-04-29T07:33:35Z</time>
      </trkpt>
      <trkpt lat="44.83013" lon="4.67569">
        <ele>182.31</ele>
        <time>2022-04-29T07:33:53Z</time>
      </trkpt>
      <trkpt lat="44.8301" lon="4.6757">
        <ele>179.42</ele>
        <time>2022-04-29T07:34:11Z</time>
      </trkpt>
      <trkpt lat="44.83016" lon="4.67571">
        <ele>174.62</ele>
        <time>2022-04-29T07:34:21Z</time>
      </trkpt>
      <trkpt lat="44.83042" lon="4.67559">
        <ele>169.81</ele>
        <time>2022-04-29T07:34:40Z</time>
      </trkpt>
      <trkpt lat="44.83058" lon="4.67555">
        <ele>175.58</ele>
        <time>2022-04-29T07:34:56Z</time>
      </trkpt>
      <trkpt lat="44.83083" lon="4.6755">
        <ele>174.62</ele>
        <time>2022-04-29T07:35:14Z</time>
      </trkpt>
      <trkpt lat="44.83084" lon="4.6755">
        <ele>174.62</ele>
        <time>2022-04-29T07:35:15Z</time>
      </trkpt>
      <trkpt lat="44.83101" lon="4.67538">
        <ele>177.98</ele>
        <time>2022-04-29T07:35:32Z</time>
      </trkpt>
      <trkpt lat="44.83108" lon="4.67525">
        <ele>179.9</ele>
        <time>2022-04-29T07:35:46Z</time>
      </trkpt>
      <trkpt lat="44.83122" lon="4.67521">
        <ele>180.38</ele>
        <time>2022-04-29T07:36:02Z</time>
      </trkpt>
      <trkpt lat="44.83131" lon="4.67507">
        <ele>178.94</ele>
        <time>2022-04-29T07:36:19Z</time>
      </trkpt>
      <trkpt lat="44.83144" lon="4.67495">
        <ele>175.58</ele>
        <time>2022-04-29T07:36:35Z</time>
      </trkpt>
      <trkpt lat="44.83159" lon="4.67483">
        <ele>176.06</ele>
        <time>2022-04-29T07:36:54Z</time>
      </trkpt>
      <trkpt lat="44.83175" lon="4.67469">
        <ele>177.02</ele>
        <time>2022-04-29T07:37:13Z</time>
      </trkpt>
      <trkpt lat="44.8319" lon="4.67455">
        <ele>179.42</ele>
        <time>2022-04-29T07:37:30Z</time>
      </trkpt>
      <trkpt lat="44.83206" lon="4.67442">
        <ele>180.87</ele>
        <time>2022-04-29T07:37:47Z</time>
      </trkpt>
      <trkpt lat="44.83216" lon="4.67426">
        <ele>184.23</ele>
        <time>2022-04-29T07:38:05Z</time>
      </trkpt>
      <trkpt lat="44.83228" lon="4.67416">
        <ele>187.11</ele>
        <time>2022-04-29T07:38:21Z</time>
      </trkpt>
      <trkpt lat="44.83243" lon="4.67403">
        <ele>186.63</ele>
        <time>2022-04-29T07:38:40Z</time>
      </trkpt>
      <trkpt lat="44.83257" lon="4.67394">
        <ele>188.56</ele>
        <time>2022-04-29T07:38:57Z</time>
      </trkpt>
      <trkpt lat="44.83265" lon="4.67391">
        <ele>192.88</ele>
        <time>2022-04-29T07:39:11Z</time>
      </trkpt>
      <trkpt lat="44.83272" lon="4.67381">
        <ele>193.84</ele>
        <time>2022-04-29T07:39:24Z</time>
      </trkpt>
      <trkpt lat="44.8327" lon="4.67372">
        <ele>199.13</ele>
        <time>2022-04-29T07:39:41Z</time>
      </trkpt>
      <trkpt lat="44.83257" lon="4.67371">
        <ele>205.38</ele>
        <time>2022-04-29T07:39:58Z</time>
      </trkpt>
      <trkpt lat="44.8324" lon="4.67373">
        <ele>207.78</ele>
        <time>2022-04-29T07:40:17Z</time>
      </trkpt>
      <trkpt lat="44.83222" lon="4.6737">
        <ele>205.38</ele>
        <time>2022-04-29T07:40:33Z</time>
      </trkpt>
      <trkpt lat="44.83208" lon="4.67357">
        <ele>206.34</ele>
        <time>2022-04-29T07:40:50Z</time>
      </trkpt>
      <trkpt lat="44.832" lon="4.67337">
        <ele>206.82</ele>
        <time>2022-04-29T07:41:06Z</time>
      </trkpt>
      <trkpt lat="44.83197" lon="4.67322">
        <ele>210.19</ele>
        <time>2022-04-29T07:41:24Z</time>
      </trkpt>
      <trkpt lat="44.83202" lon="4.67328">
        <ele>215.47</ele>
        <time>2022-04-29T07:41:41Z</time>
      </trkpt>
      <trkpt lat="44.83217" lon="4.67334">
        <ele>218.84</ele>
        <time>2022-04-29T07:42:00Z</time>
      </trkpt>
      <trkpt lat="44.83224" lon="4.67322">
        <ele>220.28</ele>
        <time>2022-04-29T07:42:17Z</time>
      </trkpt>
      <trkpt lat="44.83221" lon="4.67308">
        <ele>225.57</ele>
        <time>2022-04-29T07:42:37Z</time>
      </trkpt>
      <trkpt lat="44.83217" lon="4.67294">
        <ele>229.41</ele>
        <time>2022-04-29T07:42:54Z</time>
      </trkpt>
      <trkpt lat="44.83211" lon="4.6727">
        <ele>233.74</ele>
        <time>2022-04-29T07:43:14Z</time>
      </trkpt>
      <trkpt lat="44.83212" lon="4.67251">
        <ele>237.1</ele>
        <time>2022-04-29T07:43:33Z</time>
      </trkpt>
      <trkpt lat="44.83222" lon="4.67247">
        <ele>241.91</ele>
        <time>2022-04-29T07:43:54Z</time>
      </trkpt>
      <trkpt lat="44.83224" lon="4.6724">
        <ele>244.79</ele>
        <time>2022-04-29T07:44:12Z</time>
      </trkpt>
      <trkpt lat="44.83226" lon="4.67226">
        <ele>247.68</ele>
        <time>2022-04-29T07:44:32Z</time>
      </trkpt>
      <trkpt lat="44.83227" lon="4.67208">
        <ele>252</ele>
        <time>2022-04-29T07:44:51Z</time>
      </trkpt>
      <trkpt lat="44.83232" lon="4.67194">
        <ele>255.37</ele>
        <time>2022-04-29T07:45:11Z</time>
      </trkpt>
      <trkpt lat="44.83235" lon="4.67178">
        <ele>258.73</ele>
        <time>2022-04-29T07:45:32Z</time>
      </trkpt>
      <trkpt lat="44.83242" lon="4.67164">
        <ele>262.1</ele>
        <time>2022-04-29T07:45:54Z</time>
      </trkpt>
      <trkpt lat="44.8325" lon="4.67163">
        <ele>265.94</ele>
        <time>2022-04-29T07:46:10Z</time>
      </trkpt>
      <trkpt lat="44.83262" lon="4.67159">
        <ele>270.27</ele>
        <time>2022-04-29T07:46:30Z</time>
      </trkpt>
      <trkpt lat="44.83261" lon="4.67146">
        <ele>276.04</ele>
        <time>2022-04-29T07:46:50Z</time>
      </trkpt>
      <trkpt lat="44.83262" lon="4.67128">
        <ele>281.8</ele>
        <time>2022-04-29T07:47:11Z</time>
      </trkpt>
      <trkpt lat="44.83266" lon="4.67118">
        <ele>285.65</ele>
        <time>2022-04-29T07:47:31Z</time>
      </trkpt>
      <trkpt lat="44.83267" lon="4.67106">
        <ele>288.05</ele>
        <time>2022-04-29T07:47:48Z</time>
      </trkpt>
      <trkpt lat="44.83264" lon="4.6709">
        <ele>293.34</ele>
        <time>2022-04-29T07:48:05Z</time>
      </trkpt>
      <trkpt lat="44.83262" lon="4.67084">
        <ele>297.67</ele>
        <time>2022-04-29T07:48:23Z</time>
      </trkpt>
      <trkpt lat="44.83259" lon="4.6708">
        <ele>302.95</ele>
        <time>2022-04-29T07:48:42Z</time>
      </trkpt>
      <trkpt lat="44.83263" lon="4.67087">
        <ele>298.15</ele>
        <time>2022-04-29T07:49:02Z</time>
      </trkpt>
      <trkpt lat="44.83264" lon="4.67081">
        <ele>301.03</ele>
        <time>2022-04-29T07:49:21Z</time>
      </trkpt>
      <trkpt lat="44.83282" lon="4.67088">
        <ele>302.95</ele>
        <time>2022-04-29T07:49:43Z</time>
      </trkpt>
      <trkpt lat="44.83296" lon="4.67099">
        <ele>306.32</ele>
        <time>2022-04-29T07:50:04Z</time>
      </trkpt>
      <trkpt lat="44.83312" lon="4.67106">
        <ele>306.8</ele>
        <time>2022-04-29T07:50:21Z</time>
      </trkpt>
      <trkpt lat="44.83327" lon="4.67118">
        <ele>306.8</ele>
        <time>2022-04-29T07:50:38Z</time>
      </trkpt>
      <trkpt lat="44.83343" lon="4.6712">
        <ele>308.24</ele>
        <time>2022-04-29T07:50:56Z</time>
      </trkpt>
      <trkpt lat="44.83358" lon="4.67122">
        <ele>310.16</ele>
        <time>2022-04-29T07:51:14Z</time>
      </trkpt>
      <trkpt lat="44.83375" lon="4.67115">
        <ele>312.57</ele>
        <time>2022-04-29T07:51:34Z</time>
      </trkpt>
      <trkpt lat="44.83391" lon="4.67107">
        <ele>317.85</ele>
        <time>2022-04-29T07:51:55Z</time>
      </trkpt>
      <trkpt lat="44.83407" lon="4.67101">
        <ele>327.47</ele>
        <time>2022-04-29T07:52:16Z</time>
      </trkpt>
      <trkpt lat="44.83417" lon="4.67098">
        <ele>332.75</ele>
        <time>2022-04-29T07:52:35Z</time>
      </trkpt>
      <trkpt lat="44.83434" lon="4.67107">
        <ele>332.27</ele>
        <time>2022-04-29T07:52:55Z</time>
      </trkpt>
      <trkpt lat="44.83455" lon="4.67105">
        <ele>331.31</ele>
        <time>2022-04-29T07:53:14Z</time>
      </trkpt>
      <trkpt lat="44.83472" lon="4.67096">
        <ele>339</ele>
        <time>2022-04-29T07:53:36Z</time>
      </trkpt>
      <trkpt lat="44.83491" lon="4.67092">
        <ele>340.44</ele>
        <time>2022-04-29T07:53:56Z</time>
      </trkpt>
      <trkpt lat="44.8351" lon="4.6709">
        <ele>346.21</ele>
        <time>2022-04-29T07:54:18Z</time>
      </trkpt>
      <trkpt lat="44.83529" lon="4.67087">
        <ele>351.02</ele>
        <time>2022-04-29T07:54:38Z</time>
      </trkpt>
      <trkpt lat="44.83544" lon="4.67086">
        <ele>355.34</ele>
        <time>2022-04-29T07:54:59Z</time>
      </trkpt>
      <trkpt lat="44.83564" lon="4.67083">
        <ele>357.27</ele>
        <time>2022-04-29T07:55:19Z</time>
      </trkpt>
      <trkpt lat="44.83584" lon="4.67087">
        <ele>361.59</ele>
        <time>2022-04-29T07:55:40Z</time>
      </trkpt>
      <trkpt lat="44.83603" lon="4.67086">
        <ele>366.4</ele>
        <time>2022-04-29T07:56:02Z</time>
      </trkpt>
      <trkpt lat="44.83626" lon="4.67091">
        <ele>371.69</ele>
        <time>2022-04-29T07:56:24Z</time>
      </trkpt>
      <trkpt lat="44.83643" lon="4.67092">
        <ele>374.57</ele>
        <time>2022-04-29T07:56:43Z</time>
      </trkpt>
      <trkpt lat="44.83674" lon="4.67096">
        <ele>375.53</ele>
        <time>2022-04-29T07:57:06Z</time>
      </trkpt>
      <trkpt lat="44.83698" lon="4.671">
        <ele>378.9</ele>
        <time>2022-04-29T07:57:28Z</time>
      </trkpt>
      <trkpt lat="44.83715" lon="4.67096">
        <ele>380.82</ele>
        <time>2022-04-29T07:57:45Z</time>
      </trkpt>
      <trkpt lat="44.83699" lon="4.67088">
        <ele>384.66</ele>
        <time>2022-04-29T07:58:05Z</time>
      </trkpt>
      <trkpt lat="44.83691" lon="4.67076">
        <ele>391.39</ele>
        <time>2022-04-29T07:58:24Z</time>
      </trkpt>
      <trkpt lat="44.83679" lon="4.67057">
        <ele>396.68</ele>
        <time>2022-04-29T07:58:42Z</time>
      </trkpt>
      <trkpt lat="44.83668" lon="4.67035">
        <ele>398.12</ele>
        <time>2022-04-29T07:59:03Z</time>
      </trkpt>
      <trkpt lat="44.83671" lon="4.67038">
        <ele>399.57</ele>
        <time>2022-04-29T07:59:22Z</time>
      </trkpt>
      <trkpt lat="44.83676" lon="4.67042">
        <ele>397.64</ele>
        <time>2022-04-29T07:59:46Z</time>
      </trkpt>
      <trkpt lat="44.83674" lon="4.6704">
        <ele>394.28</ele>
        <time>2022-04-29T08:00:18Z</time>
      </trkpt>
      <trkpt lat="44.83693" lon="4.6704">
        <ele>397.64</ele>
        <time>2022-04-29T08:00:36Z</time>
      </trkpt>
      <trkpt lat="44.83694" lon="4.6704">
        <ele>397.64</ele>
        <time>2022-04-29T08:00:37Z</time>
      </trkpt>
      <trkpt lat="44.83713" lon="4.67043">
        <ele>399.08</ele>
        <time>2022-04-29T08:00:55Z</time>
      </trkpt>
      <trkpt lat="44.83731" lon="4.67045">
        <ele>401.01</ele>
        <time>2022-04-29T08:01:11Z</time>
      </trkpt>
      <trkpt lat="44.83754" lon="4.67048">
        <ele>405.33</ele>
        <time>2022-04-29T08:01:31Z</time>
      </trkpt>
      <trkpt lat="44.83774" lon="4.67049">
        <ele>404.85</ele>
        <time>2022-04-29T08:01:48Z</time>
      </trkpt>
      <trkpt lat="44.83787" lon="4.67051">
        <ele>404.85</ele>
        <time>2022-04-29T08:02:04Z</time>
      </trkpt>
      <trkpt lat="44.83816" lon="4.67048">
        <ele>402.45</ele>
        <time>2022-04-29T08:02:27Z</time>
      </trkpt>
      <trkpt lat="44.83837" lon="4.67048">
        <ele>398.6</ele>
        <time>2022-04-29T08:02:47Z</time>
      </trkpt>
      <trkpt lat="44.83838" lon="4.67047">
        <ele>398.6</ele>
        <time>2022-04-29T08:02:49Z</time>
      </trkpt>
      <trkpt lat="44.83851" lon="4.67037">
        <ele>404.37</ele>
        <time>2022-04-29T08:03:07Z</time>
      </trkpt>
      <trkpt lat="44.83861" lon="4.67039">
        <ele>410.62</ele>
        <time>2022-04-29T08:03:23Z</time>
      </trkpt>
      <trkpt lat="44.83878" lon="4.67037">
        <ele>417.83</ele>
        <time>2022-04-29T08:03:42Z</time>
      </trkpt>
      <trkpt lat="44.83893" lon="4.67033">
        <ele>420.23</ele>
        <time>2022-04-29T08:04:00Z</time>
      </trkpt>
      <trkpt lat="44.83907" lon="4.67027">
        <ele>423.6</ele>
        <time>2022-04-29T08:04:19Z</time>
      </trkpt>
      <trkpt lat="44.8392" lon="4.67029">
        <ele>426.96</ele>
        <time>2022-04-29T08:04:35Z</time>
      </trkpt>
      <trkpt lat="44.83937" lon="4.67031">
        <ele>430.81</ele>
        <time>2022-04-29T08:04:53Z</time>
      </trkpt>
      <trkpt lat="44.8395" lon="4.6703">
        <ele>432.73</ele>
        <time>2022-04-29T08:05:11Z</time>
      </trkpt>
      <trkpt lat="44.83964" lon="4.67035">
        <ele>435.13</ele>
        <time>2022-04-29T08:05:31Z</time>
      </trkpt>
      <trkpt lat="44.83977" lon="4.67034">
        <ele>436.1</ele>
        <time>2022-04-29T08:05:48Z</time>
      </trkpt>
      <trkpt lat="44.8399" lon="4.67038">
        <ele>437.06</ele>
        <time>2022-04-29T08:06:05Z</time>
      </trkpt>
      <trkpt lat="44.83999" lon="4.67046">
        <ele>440.9</ele>
        <time>2022-04-29T08:06:22Z</time>
      </trkpt>
      <trkpt lat="44.84004" lon="4.67059">
        <ele>445.23</ele>
        <time>2022-04-29T08:06:39Z</time>
      </trkpt>
      <trkpt lat="44.8401" lon="4.67075">
        <ele>449.55</ele>
        <time>2022-04-29T08:06:56Z</time>
      </trkpt>
      <trkpt lat="44.84019" lon="4.67088">
        <ele>451.96</ele>
        <time>2022-04-29T08:07:11Z</time>
      </trkpt>
      <trkpt lat="44.84028" lon="4.67102">
        <ele>455.32</ele>
        <time>2022-04-29T08:07:29Z</time>
      </trkpt>
      <trkpt lat="44.84042" lon="4.67115">
        <ele>457.72</ele>
        <time>2022-04-29T08:07:46Z</time>
      </trkpt>
      <trkpt lat="44.84056" lon="4.67127">
        <ele>457.24</ele>
        <time>2022-04-29T08:08:03Z</time>
      </trkpt>
      <trkpt lat="44.84069" lon="4.67145">
        <ele>456.76</ele>
        <time>2022-04-29T08:08:21Z</time>
      </trkpt>
      <trkpt lat="44.84084" lon="4.67157">
        <ele>459.17</ele>
        <time>2022-04-29T08:08:39Z</time>
      </trkpt>
      <trkpt lat="44.84096" lon="4.67162">
        <ele>461.57</ele>
        <time>2022-04-29T08:08:55Z</time>
      </trkpt>
      <trkpt lat="44.84111" lon="4.67168">
        <ele>462.05</ele>
        <time>2022-04-29T08:09:13Z</time>
      </trkpt>
      <trkpt lat="44.84114" lon="4.67168">
        <ele>462.05</ele>
        <time>2022-04-29T08:09:15Z</time>
      </trkpt>
      <trkpt lat="44.8413" lon="4.67173">
        <ele>462.53</ele>
        <time>2022-04-29T08:09:33Z</time>
      </trkpt>
      <trkpt lat="44.84145" lon="4.67179">
        <ele>466.86</ele>
        <time>2022-04-29T08:09:51Z</time>
      </trkpt>
      <trkpt lat="44.84155" lon="4.67187">
        <ele>470.22</ele>
        <time>2022-04-29T08:10:09Z</time>
      </trkpt>
      <trkpt lat="44.84155" lon="4.67189">
        <ele>470.7</ele>
        <time>2022-04-29T08:10:37Z</time>
      </trkpt>
      <trkpt lat="44.84161" lon="4.67188">
        <ele>472.14</ele>
        <time>2022-04-29T08:10:52Z</time>
      </trkpt>
      <trkpt lat="44.84172" lon="4.67192">
        <ele>474.55</ele>
        <time>2022-04-29T08:11:08Z</time>
      </trkpt>
      <trkpt lat="44.84186" lon="4.67198">
        <ele>479.84</ele>
        <time>2022-04-29T08:11:26Z</time>
      </trkpt>
      <trkpt lat="44.84201" lon="4.67202">
        <ele>484.16</ele>
        <time>2022-04-29T08:11:43Z</time>
      </trkpt>
      <trkpt lat="44.84218" lon="4.67209">
        <ele>486.56</ele>
        <time>2022-04-29T08:12:00Z</time>
      </trkpt>
      <trkpt lat="44.84229" lon="4.67212">
        <ele>487.53</ele>
        <time>2022-04-29T08:12:17Z</time>
      </trkpt>
      <trkpt lat="44.84246" lon="4.67212">
        <ele>488.49</ele>
        <time>2022-04-29T08:12:34Z</time>
      </trkpt>
      <trkpt lat="44.84261" lon="4.67209">
        <ele>490.89</ele>
        <time>2022-04-29T08:12:50Z</time>
      </trkpt>
      <trkpt lat="44.84276" lon="4.67193">
        <ele>491.85</ele>
        <time>2022-04-29T08:13:12Z</time>
      </trkpt>
      <trkpt lat="44.84286" lon="4.67177">
        <ele>493.29</ele>
        <time>2022-04-29T08:13:29Z</time>
      </trkpt>
      <trkpt lat="44.84284" lon="4.67176">
        <ele>497.62</ele>
        <time>2022-04-29T08:13:45Z</time>
      </trkpt>
      <trkpt lat="44.84276" lon="4.67179">
        <ele>499.54</ele>
        <time>2022-04-29T08:13:55Z</time>
      </trkpt>
      <trkpt lat="44.84258" lon="4.67175">
        <ele>502.91</ele>
        <time>2022-04-29T08:14:14Z</time>
      </trkpt>
      <trkpt lat="44.8425" lon="4.67173">
        <ele>503.87</ele>
        <time>2022-04-29T08:14:21Z</time>
      </trkpt>
      <trkpt lat="44.84234" lon="4.67158">
        <ele>506.27</ele>
        <time>2022-04-29T08:14:36Z</time>
      </trkpt>
      <trkpt lat="44.84225" lon="4.67148">
        <ele>506.75</ele>
        <time>2022-04-29T08:14:48Z</time>
      </trkpt>
      <trkpt lat="44.84216" lon="4.67133">
        <ele>508.67</ele>
        <time>2022-04-29T08:15:04Z</time>
      </trkpt>
      <trkpt lat="44.84214" lon="4.67132">
        <ele>508.19</ele>
        <time>2022-04-29T08:15:17Z</time>
      </trkpt>
      <trkpt lat="44.84215" lon="4.67129">
        <ele>505.79</ele>
        <time>2022-04-29T08:15:46Z</time>
      </trkpt>
      <trkpt lat="44.84215" lon="4.67127">
        <ele>505.79</ele>
        <time>2022-04-29T08:16:02Z</time>
      </trkpt>
      <trkpt lat="44.84212" lon="4.67122">
        <ele>504.83</ele>
        <time>2022-04-29T08:16:09Z</time>
      </trkpt>
      <trkpt lat="44.84215" lon="4.67118">
        <ele>505.79</ele>
        <time>2022-04-29T08:16:21Z</time>
      </trkpt>
      <trkpt lat="44.84218" lon="4.67117">
        <ele>506.75</ele>
        <time>2022-04-29T08:16:36Z</time>
      </trkpt>
      <trkpt lat="44.84223" lon="4.67118">
        <ele>507.23</ele>
        <time>2022-04-29T08:16:47Z</time>
      </trkpt>
      <trkpt lat="44.84234" lon="4.67113">
        <ele>510.6</ele>
        <time>2022-04-29T08:17:03Z</time>
      </trkpt>
      <trkpt lat="44.84245" lon="4.67111">
        <ele>514.92</ele>
        <time>2022-04-29T08:17:19Z</time>
      </trkpt>
      <trkpt lat="44.84259" lon="4.67113">
        <ele>516.85</ele>
        <time>2022-04-29T08:17:36Z</time>
      </trkpt>
      <trkpt lat="44.8427" lon="4.67106">
        <ele>519.25</ele>
        <time>2022-04-29T08:17:53Z</time>
      </trkpt>
      <trkpt lat="44.84278" lon="4.67101">
        <ele>521.65</ele>
        <time>2022-04-29T08:18:03Z</time>
      </trkpt>
      <trkpt lat="44.8428" lon="4.671">
        <ele>522.13</ele>
        <time>2022-04-29T08:18:05Z</time>
      </trkpt>
      <trkpt lat="44.84299" lon="4.67094">
        <ele>525.5</ele>
        <time>2022-04-29T08:18:23Z</time>
      </trkpt>
      <trkpt lat="44.84308" lon="4.67082">
        <ele>526.46</ele>
        <time>2022-04-29T08:18:38Z</time>
      </trkpt>
      <trkpt lat="44.84315" lon="4.6707">
        <ele>528.38</ele>
        <time>2022-04-29T08:18:50Z</time>
      </trkpt>
      <trkpt lat="44.84325" lon="4.67057">
        <ele>529.82</ele>
        <time>2022-04-29T08:19:06Z</time>
      </trkpt>
      <trkpt lat="44.84331" lon="4.67048">
        <ele>531.75</ele>
        <time>2022-04-29T08:19:20Z</time>
      </trkpt>
      <trkpt lat="44.84339" lon="4.67035">
        <ele>535.59</ele>
        <time>2022-04-29T08:19:37Z</time>
      </trkpt>
      <trkpt lat="44.84347" lon="4.67025">
        <ele>539.92</ele>
        <time>2022-04-29T08:19:53Z</time>
      </trkpt>
      <trkpt lat="44.84351" lon="4.67023">
        <ele>537.51</ele>
        <time>2022-04-29T08:20:10Z</time>
      </trkpt>
      <trkpt lat="44.84363" lon="4.67016">
        <ele>537.99</ele>
        <time>2022-04-29T08:20:24Z</time>
      </trkpt>
      <trkpt lat="44.84374" lon="4.67005">
        <ele>540.88</ele>
        <time>2022-04-29T08:20:39Z</time>
      </trkpt>
      <trkpt lat="44.84375" lon="4.67004">
        <ele>541.36</ele>
        <time>2022-04-29T08:20:40Z</time>
      </trkpt>
      <trkpt lat="44.84378" lon="4.67">
        <ele>542.32</ele>
        <time>2022-04-29T08:20:45Z</time>
      </trkpt>
      <trkpt lat="44.84389" lon="4.66987">
        <ele>546.17</ele>
        <time>2022-04-29T08:21:01Z</time>
      </trkpt>
      <trkpt lat="44.84396" lon="4.6697">
        <ele>549.53</ele>
        <time>2022-04-29T08:21:18Z</time>
      </trkpt>
      <trkpt lat="44.84405" lon="4.66956">
        <ele>552.41</ele>
        <time>2022-04-29T08:21:35Z</time>
      </trkpt>
      <trkpt lat="44.84411" lon="4.6694">
        <ele>555.3</ele>
        <time>2022-04-29T08:21:51Z</time>
      </trkpt>
      <trkpt lat="44.84418" lon="4.66923">
        <ele>561.55</ele>
        <time>2022-04-29T08:22:07Z</time>
      </trkpt>
      <trkpt lat="44.84418" lon="4.66918">
        <ele>562.51</ele>
        <time>2022-04-29T08:22:10Z</time>
      </trkpt>
      <trkpt lat="44.84421" lon="4.66909">
        <ele>563.95</ele>
        <time>2022-04-29T08:22:18Z</time>
      </trkpt>
      <trkpt lat="44.84423" lon="4.66902">
        <ele>564.43</ele>
        <time>2022-04-29T08:22:24Z</time>
      </trkpt>
      <trkpt lat="44.84426" lon="4.66878">
        <ele>563.47</ele>
        <time>2022-04-29T08:22:39Z</time>
      </trkpt>
      <trkpt lat="44.8443" lon="4.66862">
        <ele>562.99</ele>
        <time>2022-04-29T08:22:53Z</time>
      </trkpt>
      <trkpt lat="44.84435" lon="4.6684">
        <ele>562.03</ele>
        <time>2022-04-29T08:23:09Z</time>
      </trkpt>
      <trkpt lat="44.84439" lon="4.6683">
        <ele>561.07</ele>
        <time>2022-04-29T08:23:22Z</time>
      </trkpt>
      <trkpt lat="44.84444" lon="4.66818">
        <ele>561.07</ele>
        <time>2022-04-29T08:23:35Z</time>
      </trkpt>
      <trkpt lat="44.84452" lon="4.66809">
        <ele>564.43</ele>
        <time>2022-04-29T08:23:48Z</time>
      </trkpt>
      <trkpt lat="44.8446" lon="4.66804">
        <ele>565.39</ele>
        <time>2022-04-29T08:24:00Z</time>
      </trkpt>
      <trkpt lat="44.84474" lon="4.66796">
        <ele>569.24</ele>
        <time>2022-04-29T08:24:15Z</time>
      </trkpt>
      <trkpt lat="44.84478" lon="4.66792">
        <ele>565.87</ele>
        <time>2022-04-29T08:24:30Z</time>
      </trkpt>
      <trkpt lat="44.84478" lon="4.6679">
        <ele>565.87</ele>
        <time>2022-04-29T08:24:46Z</time>
      </trkpt>
      <trkpt lat="44.84479" lon="4.66791">
        <ele>564.91</ele>
        <time>2022-04-29T08:25:01Z</time>
      </trkpt>
      <trkpt lat="44.84478" lon="4.66793">
        <ele>566.35</ele>
        <time>2022-04-29T08:25:12Z</time>
      </trkpt>
      <trkpt lat="44.84483" lon="4.66791">
        <ele>569.72</ele>
        <time>2022-04-29T08:25:30Z</time>
      </trkpt>
      <trkpt lat="44.84491" lon="4.66786">
        <ele>567.8</ele>
        <time>2022-04-29T08:25:47Z</time>
      </trkpt>
      <trkpt lat="44.84493" lon="4.66784">
        <ele>566.35</ele>
        <time>2022-04-29T08:26:01Z</time>
      </trkpt>
      <trkpt lat="44.84499" lon="4.66783">
        <ele>565.87</ele>
        <time>2022-04-29T08:26:14Z</time>
      </trkpt>
      <trkpt lat="44.84508" lon="4.66774">
        <ele>570.2</ele>
        <time>2022-04-29T08:26:28Z</time>
      </trkpt>
      <trkpt lat="44.84517" lon="4.66766">
        <ele>572.12</ele>
        <time>2022-04-29T08:26:42Z</time>
      </trkpt>
      <trkpt lat="44.84524" lon="4.66756">
        <ele>571.16</ele>
        <time>2022-04-29T08:26:55Z</time>
      </trkpt>
      <trkpt lat="44.84532" lon="4.66747">
        <ele>572.12</ele>
        <time>2022-04-29T08:27:07Z</time>
      </trkpt>
      <trkpt lat="44.84549" lon="4.66735">
        <ele>576.45</ele>
        <time>2022-04-29T08:27:25Z</time>
      </trkpt>
      <trkpt lat="44.84561" lon="4.66723">
        <ele>580.29</ele>
        <time>2022-04-29T08:27:37Z</time>
      </trkpt>
      <trkpt lat="44.84577" lon="4.66712">
        <ele>584.62</ele>
        <time>2022-04-29T08:27:53Z</time>
      </trkpt>
      <trkpt lat="44.84596" lon="4.66695">
        <ele>587.02</ele>
        <time>2022-04-29T08:28:09Z</time>
      </trkpt>
      <trkpt lat="44.84614" lon="4.66679">
        <ele>588.95</ele>
        <time>2022-04-29T08:28:26Z</time>
      </trkpt>
      <trkpt lat="44.84634" lon="4.66659">
        <ele>588.46</ele>
        <time>2022-04-29T08:28:44Z</time>
      </trkpt>
      <trkpt lat="44.84656" lon="4.66647">
        <ele>588.46</ele>
        <time>2022-04-29T08:29:02Z</time>
      </trkpt>
      <trkpt lat="44.84677" lon="4.66635">
        <ele>586.54</ele>
        <time>2022-04-29T08:29:21Z</time>
      </trkpt>
      <trkpt lat="44.84699" lon="4.66624">
        <ele>584.62</ele>
        <time>2022-04-29T08:29:38Z</time>
      </trkpt>
      <trkpt lat="44.84721" lon="4.66613">
        <ele>585.1</ele>
        <time>2022-04-29T08:29:59Z</time>
      </trkpt>
      <trkpt lat="44.84726" lon="4.6661">
        <ele>585.1</ele>
        <time>2022-04-29T08:30:15Z</time>
      </trkpt>
      <trkpt lat="44.84737" lon="4.66598">
        <ele>585.1</ele>
        <time>2022-04-29T08:30:28Z</time>
      </trkpt>
      <trkpt lat="44.84759" lon="4.6659">
        <ele>583.66</ele>
        <time>2022-04-29T08:30:44Z</time>
      </trkpt>
      <trkpt lat="44.84782" lon="4.66595">
        <ele>581.73</ele>
        <time>2022-04-29T08:31:01Z</time>
      </trkpt>
      <trkpt lat="44.84783" lon="4.66585">
        <ele>580.77</ele>
        <time>2022-04-29T08:31:08Z</time>
      </trkpt>
      <trkpt lat="44.84773" lon="4.66549">
        <ele>579.33</ele>
        <time>2022-04-29T08:31:28Z</time>
      </trkpt>
      <trkpt lat="44.84769" lon="4.66514">
        <ele>579.33</ele>
        <time>2022-04-29T08:31:47Z</time>
      </trkpt>
      <trkpt lat="44.84756" lon="4.66489">
        <ele>580.77</ele>
        <time>2022-04-29T08:32:05Z</time>
      </trkpt>
      <trkpt lat="44.84749" lon="4.66483">
        <ele>582.22</ele>
        <time>2022-04-29T08:32:17Z</time>
      </trkpt>
      <trkpt lat="44.84739" lon="4.66474">
        <ele>583.18</ele>
        <time>2022-04-29T08:32:27Z</time>
      </trkpt>
      <trkpt lat="44.8472" lon="4.66457">
        <ele>583.66</ele>
        <time>2022-04-29T08:32:45Z</time>
      </trkpt>
      <trkpt lat="44.84698" lon="4.66444">
        <ele>581.73</ele>
        <time>2022-04-29T08:33:04Z</time>
      </trkpt>
      <trkpt lat="44.84684" lon="4.66425">
        <ele>579.81</ele>
        <time>2022-04-29T08:33:19Z</time>
      </trkpt>
      <trkpt lat="44.84665" lon="4.66408">
        <ele>579.33</ele>
        <time>2022-04-29T08:33:36Z</time>
      </trkpt>
      <trkpt lat="44.84645" lon="4.66401">
        <ele>580.77</ele>
        <time>2022-04-29T08:33:53Z</time>
      </trkpt>
      <trkpt lat="44.84635" lon="4.66393">
        <ele>583.66</ele>
        <time>2022-04-29T08:34:03Z</time>
      </trkpt>
      <trkpt lat="44.84629" lon="4.66387">
        <ele>584.14</ele>
        <time>2022-04-29T08:34:15Z</time>
      </trkpt>
      <trkpt lat="44.84628" lon="4.66389">
        <ele>584.14</ele>
        <time>2022-04-29T08:34:35Z</time>
      </trkpt>
      <trkpt lat="44.8462" lon="4.66386">
        <ele>583.66</ele>
        <time>2022-04-29T08:34:42Z</time>
      </trkpt>
      <trkpt lat="44.84617" lon="4.66385">
        <ele>583.66</ele>
        <time>2022-04-29T08:34:45Z</time>
      </trkpt>
      <trkpt lat="44.84596" lon="4.66371">
        <ele>584.62</ele>
        <time>2022-04-29T08:35:03Z</time>
      </trkpt>
      <trkpt lat="44.84585" lon="4.66362">
        <ele>585.1</ele>
        <time>2022-04-29T08:35:16Z</time>
      </trkpt>
      <trkpt lat="44.84569" lon="4.66339">
        <ele>583.18</ele>
        <time>2022-04-29T08:35:33Z</time>
      </trkpt>
      <trkpt lat="44.84567" lon="4.66337">
        <ele>583.18</ele>
        <time>2022-04-29T08:35:35Z</time>
      </trkpt>
      <trkpt lat="44.84539" lon="4.66333">
        <ele>583.66</ele>
        <time>2022-04-29T08:35:55Z</time>
      </trkpt>
      <trkpt lat="44.84535" lon="4.66333">
        <ele>583.18</ele>
        <time>2022-04-29T08:35:58Z</time>
      </trkpt>
      <trkpt lat="44.84526" lon="4.66328">
        <ele>583.18</ele>
        <time>2022-04-29T08:36:06Z</time>
      </trkpt>
      <trkpt lat="44.84504" lon="4.66305">
        <ele>583.18</ele>
        <time>2022-04-29T08:36:25Z</time>
      </trkpt>
      <trkpt lat="44.84488" lon="4.66276">
        <ele>582.22</ele>
        <time>2022-04-29T08:36:44Z</time>
      </trkpt>
      <trkpt lat="44.84486" lon="4.66267">
        <ele>580.77</ele>
        <time>2022-04-29T08:36:49Z</time>
      </trkpt>
      <trkpt lat="44.84481" lon="4.66232">
        <ele>577.89</ele>
        <time>2022-04-29T08:37:07Z</time>
      </trkpt>
      <trkpt lat="44.84473" lon="4.66216">
        <ele>576.45</ele>
        <time>2022-04-29T08:37:17Z</time>
      </trkpt>
      <trkpt lat="44.8445" lon="4.66197">
        <ele>576.45</ele>
        <time>2022-04-29T08:37:37Z</time>
      </trkpt>
      <trkpt lat="44.84426" lon="4.66173">
        <ele>575.01</ele>
        <time>2022-04-29T08:37:57Z</time>
      </trkpt>
      <trkpt lat="44.84403" lon="4.66154">
        <ele>574.04</ele>
        <time>2022-04-29T08:38:16Z</time>
      </trkpt>
      <trkpt lat="44.84374" lon="4.66145">
        <ele>574.53</ele>
        <time>2022-04-29T08:38:38Z</time>
      </trkpt>
      <trkpt lat="44.84354" lon="4.66144">
        <ele>574.04</ele>
        <time>2022-04-29T08:38:53Z</time>
      </trkpt>
      <trkpt lat="44.84329" lon="4.66132">
        <ele>572.6</ele>
        <time>2022-04-29T08:39:11Z</time>
      </trkpt>
      <trkpt lat="44.84307" lon="4.66119">
        <ele>572.12</ele>
        <time>2022-04-29T08:39:29Z</time>
      </trkpt>
      <trkpt lat="44.84289" lon="4.661">
        <ele>573.08</ele>
        <time>2022-04-29T08:39:47Z</time>
      </trkpt>
      <trkpt lat="44.84284" lon="4.66096">
        <ele>574.04</ele>
        <time>2022-04-29T08:40:02Z</time>
      </trkpt>
      <trkpt lat="44.84277" lon="4.66096">
        <ele>574.04</ele>
        <time>2022-04-29T08:40:19Z</time>
      </trkpt>
      <trkpt lat="44.84281" lon="4.66092">
        <ele>573.56</ele>
        <time>2022-04-29T08:40:51Z</time>
      </trkpt>
      <trkpt lat="44.84276" lon="4.66077">
        <ele>574.53</ele>
        <time>2022-04-29T08:41:08Z</time>
      </trkpt>
      <trkpt lat="44.84259" lon="4.66046">
        <ele>575.49</ele>
        <time>2022-04-29T08:41:28Z</time>
      </trkpt>
      <trkpt lat="44.84249" lon="4.66022">
        <ele>575.49</ele>
        <time>2022-04-29T08:41:44Z</time>
      </trkpt>
      <trkpt lat="44.84236" lon="4.65987">
        <ele>573.56</ele>
        <time>2022-04-29T08:42:04Z</time>
      </trkpt>
      <trkpt lat="44.84226" lon="4.65959">
        <ele>573.56</ele>
        <time>2022-04-29T08:42:21Z</time>
      </trkpt>
      <trkpt lat="44.84213" lon="4.6593">
        <ele>573.56</ele>
        <time>2022-04-29T08:42:39Z</time>
      </trkpt>
      <trkpt lat="44.84198" lon="4.65908">
        <ele>573.08</ele>
        <time>2022-04-29T08:42:57Z</time>
      </trkpt>
      <trkpt lat="44.84181" lon="4.65903">
        <ele>573.56</ele>
        <time>2022-04-29T08:43:07Z</time>
      </trkpt>
      <trkpt lat="44.84154" lon="4.65906">
        <ele>573.08</ele>
        <time>2022-04-29T08:43:25Z</time>
      </trkpt>
      <trkpt lat="44.84133" lon="4.65905">
        <ele>571.64</ele>
        <time>2022-04-29T08:43:43Z</time>
      </trkpt>
      <trkpt lat="44.8411" lon="4.65909">
        <ele>571.64</ele>
        <time>2022-04-29T08:43:59Z</time>
      </trkpt>
      <trkpt lat="44.84083" lon="4.65906">
        <ele>571.64</ele>
        <time>2022-04-29T08:44:19Z</time>
      </trkpt>
      <trkpt lat="44.84063" lon="4.65906">
        <ele>570.68</ele>
        <time>2022-04-29T08:44:33Z</time>
      </trkpt>
      <trkpt lat="44.8405" lon="4.65906">
        <ele>566.35</ele>
        <time>2022-04-29T08:44:50Z</time>
      </trkpt>
      <trkpt lat="44.8403" lon="4.659">
        <ele>562.99</ele>
        <time>2022-04-29T08:45:06Z</time>
      </trkpt>
      <trkpt lat="44.84003" lon="4.65878">
        <ele>559.14</ele>
        <time>2022-04-29T08:45:28Z</time>
      </trkpt>
      <trkpt lat="44.83988" lon="4.65853">
        <ele>558.66</ele>
        <time>2022-04-29T08:45:45Z</time>
      </trkpt>
      <trkpt lat="44.83981" lon="4.65826">
        <ele>558.66</ele>
        <time>2022-04-29T08:46:00Z</time>
      </trkpt>
      <trkpt lat="44.83965" lon="4.65804">
        <ele>556.26</ele>
        <time>2022-04-29T08:46:17Z</time>
      </trkpt>
      <trkpt lat="44.83942" lon="4.65782">
        <ele>558.66</ele>
        <time>2022-04-29T08:46:37Z</time>
      </trkpt>
      <trkpt lat="44.83935" lon="4.65777">
        <ele>558.66</ele>
        <time>2022-04-29T08:46:43Z</time>
      </trkpt>
      <trkpt lat="44.83917" lon="4.65765">
        <ele>560.11</ele>
        <time>2022-04-29T08:46:59Z</time>
      </trkpt>
      <trkpt lat="44.83908" lon="4.65763">
        <ele>558.18</ele>
        <time>2022-04-29T08:47:14Z</time>
      </trkpt>
      <trkpt lat="44.83906" lon="4.65765">
        <ele>559.62</ele>
        <time>2022-04-29T08:47:45Z</time>
      </trkpt>
      <trkpt lat="44.83905" lon="4.65764">
        <ele>559.62</ele>
        <time>2022-04-29T08:48:06Z</time>
      </trkpt>
      <trkpt lat="44.83904" lon="4.65762">
        <ele>558.18</ele>
        <time>2022-04-29T08:48:21Z</time>
      </trkpt>
      <trkpt lat="44.83902" lon="4.6576">
        <ele>559.14</ele>
        <time>2022-04-29T08:48:31Z</time>
      </trkpt>
      <trkpt lat="44.83899" lon="4.6576">
        <ele>556.74</ele>
        <time>2022-04-29T08:48:50Z</time>
      </trkpt>
      <trkpt lat="44.83897" lon="4.65752">
        <ele>556.26</ele>
        <time>2022-04-29T08:49:07Z</time>
      </trkpt>
      <trkpt lat="44.83879" lon="4.65735">
        <ele>559.62</ele>
        <time>2022-04-29T08:49:27Z</time>
      </trkpt>
      <trkpt lat="44.83859" lon="4.65716">
        <ele>562.99</ele>
        <time>2022-04-29T08:49:46Z</time>
      </trkpt>
      <trkpt lat="44.83843" lon="4.65696">
        <ele>562.51</ele>
        <time>2022-04-29T08:50:03Z</time>
      </trkpt>
      <trkpt lat="44.83832" lon="4.65673">
        <ele>560.11</ele>
        <time>2022-04-29T08:50:21Z</time>
      </trkpt>
      <trkpt lat="44.83826" lon="4.65648">
        <ele>560.59</ele>
        <time>2022-04-29T08:50:37Z</time>
      </trkpt>
      <trkpt lat="44.83823" lon="4.65634">
        <ele>561.07</ele>
        <time>2022-04-29T08:50:50Z</time>
      </trkpt>
      <trkpt lat="44.83823" lon="4.65634">
        <ele>561.07</ele>
        <time>2022-04-29T08:50:51Z</time>
      </trkpt>
      <trkpt lat="44.83813" lon="4.65647">
        <ele>561.55</ele>
        <time>2022-04-29T08:51:05Z</time>
      </trkpt>
      <trkpt lat="44.83811" lon="4.65655">
        <ele>561.55</ele>
        <time>2022-04-29T08:51:09Z</time>
      </trkpt>
      <trkpt lat="44.83805" lon="4.65678">
        <ele>561.55</ele>
        <time>2022-04-29T08:51:23Z</time>
      </trkpt>
      <trkpt lat="44.83802" lon="4.65692">
        <ele>561.55</ele>
        <time>2022-04-29T08:51:30Z</time>
      </trkpt>
      <trkpt lat="44.83795" lon="4.65719">
        <ele>558.66</ele>
        <time>2022-04-29T08:51:44Z</time>
      </trkpt>
      <trkpt lat="44.83794" lon="4.65721">
        <ele>558.66</ele>
        <time>2022-04-29T08:51:46Z</time>
      </trkpt>
      <trkpt lat="44.83786" lon="4.65746">
        <ele>555.78</ele>
        <time>2022-04-29T08:52:01Z</time>
      </trkpt>
      <trkpt lat="44.83782" lon="4.65763">
        <ele>555.3</ele>
        <time>2022-04-29T08:52:13Z</time>
      </trkpt>
      <trkpt lat="44.83775" lon="4.65769">
        <ele>555.3</ele>
        <time>2022-04-29T08:52:20Z</time>
      </trkpt>
      <trkpt lat="44.83763" lon="4.65786">
        <ele>553.86</ele>
        <time>2022-04-29T08:52:34Z</time>
      </trkpt>
      <trkpt lat="44.83741" lon="4.658">
        <ele>552.41</ele>
        <time>2022-04-29T08:52:50Z</time>
      </trkpt>
      <trkpt lat="44.83733" lon="4.65809">
        <ele>551.93</ele>
        <time>2022-04-29T08:52:57Z</time>
      </trkpt>
      <trkpt lat="44.83715" lon="4.65825">
        <ele>546.65</ele>
        <time>2022-04-29T08:53:13Z</time>
      </trkpt>
      <trkpt lat="44.83705" lon="4.65831">
        <ele>544.72</ele>
        <time>2022-04-29T08:53:22Z</time>
      </trkpt>
      <trkpt lat="44.83688" lon="4.65839">
        <ele>538.96</ele>
        <time>2022-04-29T08:53:38Z</time>
      </trkpt>
      <trkpt lat="44.83678" lon="4.65831">
        <ele>531.27</ele>
        <time>2022-04-29T08:53:54Z</time>
      </trkpt>
      <trkpt lat="44.83674" lon="4.65817">
        <ele>523.58</ele>
        <time>2022-04-29T08:54:10Z</time>
      </trkpt>
      <trkpt lat="44.83673" lon="4.65811">
        <ele>520.21</ele>
        <time>2022-04-29T08:54:21Z</time>
      </trkpt>
      <trkpt lat="44.83664" lon="4.65807">
        <ele>517.81</ele>
        <time>2022-04-29T08:54:28Z</time>
      </trkpt>
      <trkpt lat="44.83639" lon="4.65812">
        <ele>512.04</ele>
        <time>2022-04-29T08:54:47Z</time>
      </trkpt>
      <trkpt lat="44.83621" lon="4.65819">
        <ele>509.64</ele>
        <time>2022-04-29T08:55:01Z</time>
      </trkpt>
      <trkpt lat="44.83608" lon="4.65827">
        <ele>508.67</ele>
        <time>2022-04-29T08:55:12Z</time>
      </trkpt>
      <trkpt lat="44.83591" lon="4.65829">
        <ele>503.39</ele>
        <time>2022-04-29T08:55:29Z</time>
      </trkpt>
      <trkpt lat="44.83579" lon="4.65828">
        <ele>497.14</ele>
        <time>2022-04-29T08:55:48Z</time>
      </trkpt>
      <trkpt lat="44.83556" lon="4.6583">
        <ele>490.89</ele>
        <time>2022-04-29T08:56:04Z</time>
      </trkpt>
      <trkpt lat="44.83554" lon="4.6583">
        <ele>490.41</ele>
        <time>2022-04-29T08:56:05Z</time>
      </trkpt>
      <trkpt lat="44.83536" lon="4.65814">
        <ele>485.12</ele>
        <time>2022-04-29T08:56:24Z</time>
      </trkpt>
      <trkpt lat="44.83533" lon="4.65812">
        <ele>484.64</ele>
        <time>2022-04-29T08:56:26Z</time>
      </trkpt>
      <trkpt lat="44.83509" lon="4.65793">
        <ele>476.47</ele>
        <time>2022-04-29T08:56:46Z</time>
      </trkpt>
      <trkpt lat="44.83491" lon="4.65767">
        <ele>468.78</ele>
        <time>2022-04-29T08:57:05Z</time>
      </trkpt>
      <trkpt lat="44.83481" lon="4.6576">
        <ele>465.42</ele>
        <time>2022-04-29T08:57:14Z</time>
      </trkpt>
      <trkpt lat="44.83476" lon="4.65759">
        <ele>463.97</ele>
        <time>2022-04-29T08:57:18Z</time>
      </trkpt>
      <trkpt lat="44.83469" lon="4.65762">
        <ele>462.05</ele>
        <time>2022-04-29T08:57:25Z</time>
      </trkpt>
      <trkpt lat="44.83454" lon="4.65764">
        <ele>458.21</ele>
        <time>2022-04-29T08:57:39Z</time>
      </trkpt>
      <trkpt lat="44.83445" lon="4.65762">
        <ele>454.84</ele>
        <time>2022-04-29T08:57:47Z</time>
      </trkpt>
      <trkpt lat="44.83442" lon="4.65762">
        <ele>454.36</ele>
        <time>2022-04-29T08:57:49Z</time>
      </trkpt>
      <trkpt lat="44.83432" lon="4.65766">
        <ele>452.92</ele>
        <time>2022-04-29T08:57:56Z</time>
      </trkpt>
      <trkpt lat="44.83423" lon="4.65765">
        <ele>451.96</ele>
        <time>2022-04-29T08:58:05Z</time>
      </trkpt>
      <trkpt lat="44.83421" lon="4.65752">
        <ele>451.96</ele>
        <time>2022-04-29T08:58:14Z</time>
      </trkpt>
      <trkpt lat="44.8342" lon="4.65746">
        <ele>451.48</ele>
        <time>2022-04-29T08:58:18Z</time>
      </trkpt>
      <trkpt lat="44.83408" lon="4.65747">
        <ele>451.48</ele>
        <time>2022-04-29T08:58:27Z</time>
      </trkpt>
      <trkpt lat="44.83404" lon="4.65749">
        <ele>451.48</ele>
        <time>2022-04-29T08:58:30Z</time>
      </trkpt>
      <trkpt lat="44.83383" lon="4.65757">
        <ele>449.55</ele>
        <time>2022-04-29T08:58:45Z</time>
      </trkpt>
      <trkpt lat="44.83381" lon="4.65759">
        <ele>447.63</ele>
        <time>2022-04-29T08:58:49Z</time>
      </trkpt>
      <trkpt lat="44.8337" lon="4.65771">
        <ele>447.63</ele>
        <time>2022-04-29T08:59:02Z</time>
      </trkpt>
      <trkpt lat="44.83368" lon="4.65774">
        <ele>447.63</ele>
        <time>2022-04-29T08:59:05Z</time>
      </trkpt>
      <trkpt lat="44.83358" lon="4.65779">
        <ele>445.71</ele>
        <time>2022-04-29T08:59:14Z</time>
      </trkpt>
      <trkpt lat="44.83346" lon="4.65774">
        <ele>441.86</ele>
        <time>2022-04-29T08:59:28Z</time>
      </trkpt>
      <trkpt lat="44.83344" lon="4.65773">
        <ele>438.02</ele>
        <time>2022-04-29T08:59:48Z</time>
      </trkpt>
      <trkpt lat="44.83343" lon="4.65771">
        <ele>436.1</ele>
        <time>2022-04-29T09:00:07Z</time>
      </trkpt>
      <trkpt lat="44.83345" lon="4.65769">
        <ele>431.77</ele>
        <time>2022-04-29T09:00:34Z</time>
      </trkpt>
      <trkpt lat="44.83344" lon="4.65771">
        <ele>432.25</ele>
        <time>2022-04-29T09:00:49Z</time>
      </trkpt>
      <trkpt lat="44.83346" lon="4.65756">
        <ele>430.81</ele>
        <time>2022-04-29T09:01:05Z</time>
      </trkpt>
      <trkpt lat="44.83339" lon="4.65751">
        <ele>430.33</ele>
        <time>2022-04-29T09:01:19Z</time>
      </trkpt>
      <trkpt lat="44.83322" lon="4.65762">
        <ele>435.13</ele>
        <time>2022-04-29T09:01:36Z</time>
      </trkpt>
      <trkpt lat="44.83309" lon="4.65781">
        <ele>438.5</ele>
        <time>2022-04-29T09:01:53Z</time>
      </trkpt>
      <trkpt lat="44.83291" lon="4.65797">
        <ele>440.9</ele>
        <time>2022-04-29T09:02:08Z</time>
      </trkpt>
      <trkpt lat="44.83283" lon="4.65804">
        <ele>439.94</ele>
        <time>2022-04-29T09:02:14Z</time>
      </trkpt>
      <trkpt lat="44.83273" lon="4.65817">
        <ele>437.06</ele>
        <time>2022-04-29T09:02:30Z</time>
      </trkpt>
      <trkpt lat="44.83272" lon="4.65821">
        <ele>436.58</ele>
        <time>2022-04-29T09:02:33Z</time>
      </trkpt>
      <trkpt lat="44.83267" lon="4.6583">
        <ele>436.58</ele>
        <time>2022-04-29T09:02:40Z</time>
      </trkpt>
      <trkpt lat="44.83257" lon="4.65853">
        <ele>434.65</ele>
        <time>2022-04-29T09:02:54Z</time>
      </trkpt>
      <trkpt lat="44.8324" lon="4.6588">
        <ele>431.77</ele>
        <time>2022-04-29T09:03:11Z</time>
      </trkpt>
      <trkpt lat="44.83215" lon="4.65899">
        <ele>429.37</ele>
        <time>2022-04-29T09:03:29Z</time>
      </trkpt>
      <trkpt lat="44.83196" lon="4.6592">
        <ele>431.77</ele>
        <time>2022-04-29T09:03:48Z</time>
      </trkpt>
      <trkpt lat="44.83182" lon="4.65935">
        <ele>431.77</ele>
        <time>2022-04-29T09:04:03Z</time>
      </trkpt>
      <trkpt lat="44.83181" lon="4.65945">
        <ele>429.85</ele>
        <time>2022-04-29T09:04:11Z</time>
      </trkpt>
      <trkpt lat="44.83184" lon="4.65955">
        <ele>426.48</ele>
        <time>2022-04-29T09:04:25Z</time>
      </trkpt>
      <trkpt lat="44.83206" lon="4.65951">
        <ele>426.48</ele>
        <time>2022-04-29T09:04:45Z</time>
      </trkpt>
      <trkpt lat="44.83219" lon="4.65945">
        <ele>425.52</ele>
        <time>2022-04-29T09:04:55Z</time>
      </trkpt>
      <trkpt lat="44.83241" lon="4.65936">
        <ele>424.56</ele>
        <time>2022-04-29T09:05:13Z</time>
      </trkpt>
      <trkpt lat="44.83264" lon="4.65915">
        <ele>420.23</ele>
        <time>2022-04-29T09:05:30Z</time>
      </trkpt>
      <trkpt lat="44.83282" lon="4.65894">
        <ele>420.23</ele>
        <time>2022-04-29T09:05:47Z</time>
      </trkpt>
      <trkpt lat="44.83301" lon="4.65879">
        <ele>424.08</ele>
        <time>2022-04-29T09:06:05Z</time>
      </trkpt>
      <trkpt lat="44.83312" lon="4.65875">
        <ele>422.16</ele>
        <time>2022-04-29T09:06:11Z</time>
      </trkpt>
      <trkpt lat="44.83331" lon="4.6589">
        <ele>420.23</ele>
        <time>2022-04-29T09:06:28Z</time>
      </trkpt>
      <trkpt lat="44.83349" lon="4.65914">
        <ele>414.47</ele>
        <time>2022-04-29T09:06:46Z</time>
      </trkpt>
      <trkpt lat="44.83371" lon="4.65933">
        <ele>407.74</ele>
        <time>2022-04-29T09:07:04Z</time>
      </trkpt>
      <trkpt lat="44.83378" lon="4.65942">
        <ele>401.49</ele>
        <time>2022-04-29T09:07:13Z</time>
      </trkpt>
      <trkpt lat="44.83381" lon="4.65957">
        <ele>397.16</ele>
        <time>2022-04-29T09:07:23Z</time>
      </trkpt>
      <trkpt lat="44.83385" lon="4.65976">
        <ele>393.8</ele>
        <time>2022-04-29T09:07:37Z</time>
      </trkpt>
      <trkpt lat="44.83379" lon="4.65976">
        <ele>392.84</ele>
        <time>2022-04-29T09:07:44Z</time>
      </trkpt>
      <trkpt lat="44.83362" lon="4.65957">
        <ele>386.59</ele>
        <time>2022-04-29T09:08:03Z</time>
      </trkpt>
      <trkpt lat="44.83353" lon="4.6595">
        <ele>385.15</ele>
        <time>2022-04-29T09:08:12Z</time>
      </trkpt>
      <trkpt lat="44.83338" lon="4.65942">
        <ele>383.7</ele>
        <time>2022-04-29T09:08:23Z</time>
      </trkpt>
      <trkpt lat="44.83323" lon="4.65941">
        <ele>384.18</ele>
        <time>2022-04-29T09:08:31Z</time>
      </trkpt>
      <trkpt lat="44.83306" lon="4.65957">
        <ele>389.95</ele>
        <time>2022-04-29T09:08:49Z</time>
      </trkpt>
      <trkpt lat="44.83305" lon="4.65958">
        <ele>390.43</ele>
        <time>2022-04-29T09:08:50Z</time>
      </trkpt>
      <trkpt lat="44.83283" lon="4.65981">
        <ele>393.8</ele>
        <time>2022-04-29T09:09:11Z</time>
      </trkpt>
      <trkpt lat="44.83264" lon="4.66002">
        <ele>388.51</ele>
        <time>2022-04-29T09:09:27Z</time>
      </trkpt>
      <trkpt lat="44.83261" lon="4.66012">
        <ele>384.66</ele>
        <time>2022-04-29T09:09:31Z</time>
      </trkpt>
      <trkpt lat="44.83243" lon="4.66044">
        <ele>379.38</ele>
        <time>2022-04-29T09:09:50Z</time>
      </trkpt>
      <trkpt lat="44.83234" lon="4.66076">
        <ele>377.94</ele>
        <time>2022-04-29T09:10:10Z</time>
      </trkpt>
      <trkpt lat="44.83219" lon="4.66105">
        <ele>373.13</ele>
        <time>2022-04-29T09:10:29Z</time>
      </trkpt>
      <trkpt lat="44.83207" lon="4.66118">
        <ele>370.73</ele>
        <time>2022-04-29T09:10:39Z</time>
      </trkpt>
      <trkpt lat="44.83182" lon="4.6614">
        <ele>364.48</ele>
        <time>2022-04-29T09:10:57Z</time>
      </trkpt>
      <trkpt lat="44.83162" lon="4.66152">
        <ele>360.63</ele>
        <time>2022-04-29T09:11:13Z</time>
      </trkpt>
      <trkpt lat="44.83138" lon="4.66154">
        <ele>360.15</ele>
        <time>2022-04-29T09:11:29Z</time>
      </trkpt>
      <trkpt lat="44.83117" lon="4.66157">
        <ele>359.19</ele>
        <time>2022-04-29T09:11:43Z</time>
      </trkpt>
      <trkpt lat="44.83097" lon="4.66162">
        <ele>351.98</ele>
        <time>2022-04-29T09:12:00Z</time>
      </trkpt>
      <trkpt lat="44.83072" lon="4.66172">
        <ele>344.77</ele>
        <time>2022-04-29T09:12:19Z</time>
      </trkpt>
      <trkpt lat="44.83048" lon="4.66183">
        <ele>339.96</ele>
        <time>2022-04-29T09:12:39Z</time>
      </trkpt>
      <trkpt lat="44.83021" lon="4.66193">
        <ele>334.68</ele>
        <time>2022-04-29T09:12:58Z</time>
      </trkpt>
      <trkpt lat="44.83003" lon="4.66211">
        <ele>334.2</ele>
        <time>2022-04-29T09:13:14Z</time>
      </trkpt>
      <trkpt lat="44.82981" lon="4.66237">
        <ele>332.27</ele>
        <time>2022-04-29T09:13:36Z</time>
      </trkpt>
      <trkpt lat="44.82965" lon="4.66244">
        <ele>332.75</ele>
        <time>2022-04-29T09:13:48Z</time>
      </trkpt>
      <trkpt lat="44.82952" lon="4.66225">
        <ele>331.31</ele>
        <time>2022-04-29T09:14:06Z</time>
      </trkpt>
      <trkpt lat="44.82955" lon="4.66201">
        <ele>334.2</ele>
        <time>2022-04-29T09:14:22Z</time>
      </trkpt>
      <trkpt lat="44.82965" lon="4.66171">
        <ele>339.48</ele>
        <time>2022-04-29T09:14:41Z</time>
      </trkpt>
      <trkpt lat="44.82961" lon="4.66135">
        <ele>337.08</ele>
        <time>2022-04-29T09:14:59Z</time>
      </trkpt>
      <trkpt lat="44.82964" lon="4.66104">
        <ele>331.31</ele>
        <time>2022-04-29T09:15:16Z</time>
      </trkpt>
      <trkpt lat="44.82949" lon="4.66123">
        <ele>324.1</ele>
        <time>2022-04-29T09:15:35Z</time>
      </trkpt>
      <trkpt lat="44.82934" lon="4.66149">
        <ele>314.49</ele>
        <time>2022-04-29T09:15:51Z</time>
      </trkpt>
      <trkpt lat="44.82925" lon="4.66155">
        <ele>311.12</ele>
        <time>2022-04-29T09:16:03Z</time>
      </trkpt>
      <trkpt lat="44.82925" lon="4.66155">
        <ele>311.12</ele>
        <time>2022-04-29T09:16:04Z</time>
      </trkpt>
      <trkpt lat="44.82907" lon="4.66166">
        <ele>308.24</ele>
        <time>2022-04-29T09:16:19Z</time>
      </trkpt>
      <trkpt lat="44.82888" lon="4.66168">
        <ele>310.16</ele>
        <time>2022-04-29T09:16:33Z</time>
      </trkpt>
      <trkpt lat="44.82885" lon="4.66171">
        <ele>300.07</ele>
        <time>2022-04-29T09:16:46Z</time>
      </trkpt>
      <trkpt lat="44.82906" lon="4.66152">
        <ele>293.34</ele>
        <time>2022-04-29T09:17:05Z</time>
      </trkpt>
      <trkpt lat="44.82904" lon="4.6615">
        <ele>292.86</ele>
        <time>2022-04-29T09:17:07Z</time>
      </trkpt>
      <trkpt lat="44.82885" lon="4.66147">
        <ele>291.42</ele>
        <time>2022-04-29T09:17:22Z</time>
      </trkpt>
      <trkpt lat="44.82858" lon="4.66146">
        <ele>293.34</ele>
        <time>2022-04-29T09:17:41Z</time>
      </trkpt>
      <trkpt lat="44.82833" lon="4.66159">
        <ele>290.46</ele>
        <time>2022-04-29T09:17:57Z</time>
      </trkpt>
      <trkpt lat="44.82813" lon="4.6617">
        <ele>287.57</ele>
        <time>2022-04-29T09:18:11Z</time>
      </trkpt>
      <trkpt lat="44.82795" lon="4.66175">
        <ele>286.61</ele>
        <time>2022-04-29T09:18:26Z</time>
      </trkpt>
      <trkpt lat="44.82777" lon="4.66185">
        <ele>286.13</ele>
        <time>2022-04-29T09:18:39Z</time>
      </trkpt>
      <trkpt lat="44.8275" lon="4.66184">
        <ele>288.53</ele>
        <time>2022-04-29T09:18:56Z</time>
      </trkpt>
      <trkpt lat="44.82739" lon="4.66181">
        <ele>288.05</ele>
        <time>2022-04-29T09:19:03Z</time>
      </trkpt>
      <trkpt lat="44.8273" lon="4.66181">
        <ele>287.09</ele>
        <time>2022-04-29T09:19:09Z</time>
      </trkpt>
      <trkpt lat="44.82719" lon="4.66186">
        <ele>284.69</ele>
        <time>2022-04-29T09:19:16Z</time>
      </trkpt>
      <trkpt lat="44.82706" lon="4.66202">
        <ele>278.44</ele>
        <time>2022-04-29T09:19:29Z</time>
      </trkpt>
      <trkpt lat="44.82702" lon="4.66217">
        <ele>272.67</ele>
        <time>2022-04-29T09:19:40Z</time>
      </trkpt>
      <trkpt lat="44.82702" lon="4.66221">
        <ele>271.23</ele>
        <time>2022-04-29T09:19:43Z</time>
      </trkpt>
      <trkpt lat="44.82704" lon="4.66238">
        <ele>267.86</ele>
        <time>2022-04-29T09:19:52Z</time>
      </trkpt>
      <trkpt lat="44.827" lon="4.66269">
        <ele>259.21</ele>
        <time>2022-04-29T09:20:06Z</time>
      </trkpt>
      <trkpt lat="44.82699" lon="4.66292">
        <ele>257.77</ele>
        <time>2022-04-29T09:20:20Z</time>
      </trkpt>
      <trkpt lat="44.82692" lon="4.66317">
        <ele>255.37</ele>
        <time>2022-04-29T09:20:34Z</time>
      </trkpt>
      <trkpt lat="44.8269" lon="4.66342">
        <ele>250.08</ele>
        <time>2022-04-29T09:20:47Z</time>
      </trkpt>
      <trkpt lat="44.82695" lon="4.66365">
        <ele>244.79</ele>
        <time>2022-04-29T09:20:59Z</time>
      </trkpt>
      <trkpt lat="44.82695" lon="4.66367">
        <ele>240.47</ele>
        <time>2022-04-29T09:21:11Z</time>
      </trkpt>
      <trkpt lat="44.82676" lon="4.66364">
        <ele>234.22</ele>
        <time>2022-04-29T09:21:29Z</time>
      </trkpt>
      <trkpt lat="44.82658" lon="4.66352">
        <ele>229.89</ele>
        <time>2022-04-29T09:21:46Z</time>
      </trkpt>
      <trkpt lat="44.82651" lon="4.66348">
        <ele>221.72</ele>
        <time>2022-04-29T09:22:03Z</time>
      </trkpt>
      <trkpt lat="44.82651" lon="4.66358">
        <ele>220.76</ele>
        <time>2022-04-29T09:22:10Z</time>
      </trkpt>
      <trkpt lat="44.82656" lon="4.66392">
        <ele>221.24</ele>
        <time>2022-04-29T09:22:30Z</time>
      </trkpt>
      <trkpt lat="44.82666" lon="4.66428">
        <ele>220.76</ele>
        <time>2022-04-29T09:22:48Z</time>
      </trkpt>
      <trkpt lat="44.82671" lon="4.66456">
        <ele>221.24</ele>
        <time>2022-04-29T09:23:04Z</time>
      </trkpt>
      <trkpt lat="44.82671" lon="4.66465">
        <ele>220.28</ele>
        <time>2022-04-29T09:23:10Z</time>
      </trkpt>
      <trkpt lat="44.82676" lon="4.66477">
        <ele>217.88</ele>
        <time>2022-04-29T09:23:16Z</time>
      </trkpt>
      <trkpt lat="44.82684" lon="4.66509">
        <ele>214.99</ele>
        <time>2022-04-29T09:23:34Z</time>
      </trkpt>
      <trkpt lat="44.82691" lon="4.66531">
        <ele>215.47</ele>
        <time>2022-04-29T09:23:51Z</time>
      </trkpt>
      <trkpt lat="44.82695" lon="4.66548">
        <ele>215.95</ele>
        <time>2022-04-29T09:24:06Z</time>
      </trkpt>
      <trkpt lat="44.82681" lon="4.66567">
        <ele>214.99</ele>
        <time>2022-04-29T09:24:24Z</time>
      </trkpt>
      <trkpt lat="44.82671" lon="4.66594">
        <ele>215.47</ele>
        <time>2022-04-29T09:24:44Z</time>
      </trkpt>
      <trkpt lat="44.82665" lon="4.66615">
        <ele>209.7</ele>
        <time>2022-04-29T09:25:04Z</time>
      </trkpt>
      <trkpt lat="44.82666" lon="4.66634">
        <ele>199.61</ele>
        <time>2022-04-29T09:25:19Z</time>
      </trkpt>
      <trkpt lat="44.8267" lon="4.66655">
        <ele>192.4</ele>
        <time>2022-04-29T09:25:36Z</time>
      </trkpt>
      <trkpt lat="44.82671" lon="4.66659">
        <ele>191.44</ele>
        <time>2022-04-29T09:25:40Z</time>
      </trkpt>
      <trkpt lat="44.82669" lon="4.66659">
        <ele>190.48</ele>
        <time>2022-04-29T09:25:44Z</time>
      </trkpt>
      <trkpt lat="44.82662" lon="4.66663">
        <ele>189.52</ele>
        <time>2022-04-29T09:25:51Z</time>
      </trkpt>
      <trkpt lat="44.82654" lon="4.66664">
        <ele>189.04</ele>
        <time>2022-04-29T09:25:58Z</time>
      </trkpt>
      <trkpt lat="44.82645" lon="4.66663">
        <ele>187.59</ele>
        <time>2022-04-29T09:26:05Z</time>
      </trkpt>
      <trkpt lat="44.8264" lon="4.66672">
        <ele>186.15</ele>
        <time>2022-04-29T09:26:11Z</time>
      </trkpt>
      <trkpt lat="44.82638" lon="4.66696">
        <ele>182.79</ele>
        <time>2022-04-29T09:26:27Z</time>
      </trkpt>
      <trkpt lat="44.82632" lon="4.66723">
        <ele>182.31</ele>
        <time>2022-04-29T09:26:43Z</time>
      </trkpt>
      <trkpt lat="44.82632" lon="4.66757">
        <ele>182.31</ele>
        <time>2022-04-29T09:27:00Z</time>
      </trkpt>
      <trkpt lat="44.82626" lon="4.66782">
        <ele>181.83</ele>
        <time>2022-04-29T09:27:15Z</time>
      </trkpt>
      <trkpt lat="44.82626" lon="4.66808">
        <ele>178.46</ele>
        <time>2022-04-29T09:27:29Z</time>
      </trkpt>
      <trkpt lat="44.8263" lon="4.66819">
        <ele>176.06</ele>
        <time>2022-04-29T09:27:42Z</time>
      </trkpt>
      <trkpt lat="44.82638" lon="4.66834">
        <ele>174.14</ele>
        <time>2022-04-29T09:27:57Z</time>
      </trkpt>
      <trkpt lat="44.82646" lon="4.66862">
        <ele>176.06</ele>
        <time>2022-04-29T09:28:14Z</time>
      </trkpt>
      <trkpt lat="44.82653" lon="4.66881">
        <ele>175.1</ele>
        <time>2022-04-29T09:28:23Z</time>
      </trkpt>
      <trkpt lat="44.82678" lon="4.66904">
        <ele>171.73</ele>
        <time>2022-04-29T09:28:42Z</time>
      </trkpt>
      <trkpt lat="44.8269" lon="4.66907">
        <ele>171.25</ele>
        <time>2022-04-29T09:28:51Z</time>
      </trkpt>
      <trkpt lat="44.82696" lon="4.6691">
        <ele>170.29</ele>
        <time>2022-04-29T09:28:56Z</time>
      </trkpt>
      <trkpt lat="44.82716" lon="4.66907">
        <ele>170.77</ele>
        <time>2022-04-29T09:29:14Z</time>
      </trkpt>
      <trkpt lat="44.82736" lon="4.66896">
        <ele>172.69</ele>
        <time>2022-04-29T09:29:30Z</time>
      </trkpt>
      <trkpt lat="44.82753" lon="4.66904">
        <ele>167.89</ele>
        <time>2022-04-29T09:29:45Z</time>
      </trkpt>
      <trkpt lat="44.82753" lon="4.66911">
        <ele>165.96</ele>
        <time>2022-04-29T09:30:01Z</time>
      </trkpt>
      <trkpt lat="44.8275" lon="4.66935">
        <ele>173.66</ele>
        <time>2022-04-29T09:30:20Z</time>
      </trkpt>
      <trkpt lat="44.82746" lon="4.66967">
        <ele>183.27</ele>
        <time>2022-04-29T09:30:38Z</time>
      </trkpt>
      <trkpt lat="44.82751" lon="4.67014">
        <ele>187.11</ele>
        <time>2022-04-29T09:30:57Z</time>
      </trkpt>
      <trkpt lat="44.8275" lon="4.67038">
        <ele>187.11</ele>
        <time>2022-04-29T09:31:13Z</time>
      </trkpt>
      <trkpt lat="44.82751" lon="4.67044">
        <ele>187.11</ele>
        <time>2022-04-29T09:31:16Z</time>
      </trkpt>
      <trkpt lat="44.82762" lon="4.67083">
        <ele>181.35</ele>
        <time>2022-04-29T09:31:34Z</time>
      </trkpt>
      <trkpt lat="44.82768" lon="4.67125">
        <ele>171.25</ele>
        <time>2022-04-29T09:31:54Z</time>
      </trkpt>
      <trkpt lat="44.82776" lon="4.67163">
        <ele>169.81</ele>
        <time>2022-04-29T09:32:13Z</time>
      </trkpt>
      <trkpt lat="44.82785" lon="4.67199">
        <ele>166.93</ele>
        <time>2022-04-29T09:32:32Z</time>
      </trkpt>
      <trkpt lat="44.82794" lon="4.6723">
        <ele>161.64</ele>
        <time>2022-04-29T09:32:50Z</time>
      </trkpt>
      <trkpt lat="44.82807" lon="4.67259">
        <ele>162.12</ele>
        <time>2022-04-29T09:33:08Z</time>
      </trkpt>
      <trkpt lat="44.82823" lon="4.6729">
        <ele>162.12</ele>
        <time>2022-04-29T09:33:26Z</time>
      </trkpt>
      <trkpt lat="44.82832" lon="4.67311">
        <ele>163.56</ele>
        <time>2022-04-29T09:33:40Z</time>
      </trkpt>
      <trkpt lat="44.82846" lon="4.67341">
        <ele>167.41</ele>
        <time>2022-04-29T09:34:00Z</time>
      </trkpt>
      <trkpt lat="44.8286" lon="4.6737">
        <ele>168.85</ele>
        <time>2022-04-29T09:34:18Z</time>
      </trkpt>
      <trkpt lat="44.82864" lon="4.67387">
        <ele>167.89</ele>
        <time>2022-04-29T09:34:26Z</time>
      </trkpt>
      <trkpt lat="44.82877" lon="4.67422">
        <ele>165.48</ele>
        <time>2022-04-29T09:34:44Z</time>
      </trkpt>
      <trkpt lat="44.82889" lon="4.67453">
        <ele>165.96</ele>
        <time>2022-04-29T09:35:02Z</time>
      </trkpt>
      <trkpt lat="44.82898" lon="4.67487">
        <ele>165.96</ele>
        <time>2022-04-29T09:35:21Z</time>
      </trkpt>
      <trkpt lat="44.829" lon="4.67494">
        <ele>165.96</ele>
        <time>2022-04-29T09:35:26Z</time>
      </trkpt>
      <trkpt lat="44.82907" lon="4.67519">
        <ele>165.96</ele>
        <time>2022-04-29T09:35:44Z</time>
      </trkpt>
      <trkpt lat="44.82912" lon="4.67536">
        <ele>169.33</ele>
        <time>2022-04-29T09:35:59Z</time>
      </trkpt>
      <trkpt lat="44.82922" lon="4.67566">
        <ele>174.62</ele>
        <time>2022-04-29T09:36:19Z</time>
      </trkpt>
      <trkpt lat="44.82922" lon="4.67587">
        <ele>178.46</ele>
        <time>2022-04-29T09:36:34Z</time>
      </trkpt>
      <trkpt lat="44.82908" lon="4.676">
        <ele>185.67</ele>
        <time>2022-04-29T09:36:57Z</time>
      </trkpt>
      <trkpt lat="44.82904" lon="4.67609">
        <ele>181.83</ele>
        <time>2022-04-29T09:37:07Z</time>
      </trkpt>
      <trkpt lat="44.82882" lon="4.67625">
        <ele>177.5</ele>
        <time>2022-04-29T09:37:24Z</time>
      </trkpt>
      <trkpt lat="44.8286" lon="4.6763">
        <ele>169.81</ele>
        <time>2022-04-29T09:37:40Z</time>
      </trkpt>
      <trkpt lat="44.82837" lon="4.67638">
        <ele>170.29</ele>
        <time>2022-04-29T09:37:58Z</time>
      </trkpt>
      <trkpt lat="44.82816" lon="4.67656">
        <ele>167.41</ele>
        <time>2022-04-29T09:38:15Z</time>
      </trkpt>
      <trkpt lat="44.82791" lon="4.67668">
        <ele>167.41</ele>
        <time>2022-04-29T09:38:35Z</time>
      </trkpt>
      <trkpt lat="44.82763" lon="4.67683">
        <ele>165</ele>
        <time>2022-04-29T09:38:53Z</time>
      </trkpt>
      <trkpt lat="44.82738" lon="4.67697">
        <ele>161.64</ele>
        <time>2022-04-29T09:39:11Z</time>
      </trkpt>
      <trkpt lat="44.82716" lon="4.67711">
        <ele>159.72</ele>
        <time>2022-04-29T09:39:28Z</time>
      </trkpt>
      <trkpt lat="44.82695" lon="4.67721">
        <ele>161.64</ele>
        <time>2022-04-29T09:39:43Z</time>
      </trkpt>
      <trkpt lat="44.82671" lon="4.67737">
        <ele>160.68</ele>
        <time>2022-04-29T09:40:02Z</time>
      </trkpt>
      <trkpt lat="44.82662" lon="4.67745">
        <ele>157.31</ele>
        <time>2022-04-29T09:40:18Z</time>
      </trkpt>
      <trkpt lat="44.82656" lon="4.67749">
        <ele>156.35</ele>
        <time>2022-04-29T09:40:35Z</time>
      </trkpt>
      <trkpt lat="44.82637" lon="4.67759">
        <ele>157.31</ele>
        <time>2022-04-29T09:40:51Z</time>
      </trkpt>
      <trkpt lat="44.82635" lon="4.67764">
        <ele>157.31</ele>
        <time>2022-04-29T09:40:54Z</time>
      </trkpt>
      <trkpt lat="44.82632" lon="4.67797">
        <ele>157.79</ele>
        <time>2022-04-29T09:41:11Z</time>
      </trkpt>
      <trkpt lat="44.82628" lon="4.6783">
        <ele>161.64</ele>
        <time>2022-04-29T09:41:29Z</time>
      </trkpt>
      <trkpt lat="44.82626" lon="4.67868">
        <ele>165.96</ele>
        <time>2022-04-29T09:41:49Z</time>
      </trkpt>
      <trkpt lat="44.82627" lon="4.67902">
        <ele>169.81</ele>
        <time>2022-04-29T09:42:08Z</time>
      </trkpt>
      <trkpt lat="44.82627" lon="4.67904">
        <ele>169.81</ele>
        <time>2022-04-29T09:42:09Z</time>
      </trkpt>
      <trkpt lat="44.82633" lon="4.67921">
        <ele>171.25</ele>
        <time>2022-04-29T09:42:19Z</time>
      </trkpt>
      <trkpt lat="44.82635" lon="4.67929">
        <ele>173.17</ele>
        <time>2022-04-29T09:42:24Z</time>
      </trkpt>
      <trkpt lat="44.82637" lon="4.67958">
        <ele>174.62</ele>
        <time>2022-04-29T09:42:39Z</time>
      </trkpt>
      <trkpt lat="44.82639" lon="4.67981">
        <ele>176.54</ele>
        <time>2022-04-29T09:42:53Z</time>
      </trkpt>
      <trkpt lat="44.82639" lon="4.68007">
        <ele>180.38</ele>
        <time>2022-04-29T09:43:09Z</time>
      </trkpt>
      <trkpt lat="44.82639" lon="4.68031">
        <ele>177.98</ele>
        <time>2022-04-29T09:43:24Z</time>
      </trkpt>
      <trkpt lat="44.82637" lon="4.68036">
        <ele>175.58</ele>
        <time>2022-04-29T09:43:28Z</time>
      </trkpt>
      <trkpt lat="44.82628" lon="4.6803">
        <ele>173.17</ele>
        <time>2022-04-29T09:43:42Z</time>
      </trkpt>
      <trkpt lat="44.8262" lon="4.68023">
        <ele>169.81</ele>
        <time>2022-04-29T09:43:57Z</time>
      </trkpt>
      <trkpt lat="44.82619" lon="4.68023">
        <ele>168.85</ele>
        <time>2022-04-29T09:44:12Z</time>
      </trkpt>
      <trkpt lat="44.82619" lon="4.68021">
        <ele>167.89</ele>
        <time>2022-04-29T09:44:28Z</time>
      </trkpt>
      <trkpt lat="44.82617" lon="4.68019">
        <ele>163.56</ele>
        <time>2022-04-29T09:44:55Z</time>
      </trkpt>
      <trkpt lat="44.82618" lon="4.68018">
        <ele>161.16</ele>
        <time>2022-04-29T09:45:26Z</time>
      </trkpt>
    </trkseg>
  </trk>
</gpx>